sensor_id;sensor_type;location;lat;lon;timestamp;P1;durP1;ratioP1;P2;durP2;ratioP2
17422;SDS011;8829;47.932;7.810;2024-01-11T00:01:38;24.30;;;15.83;;
17422;SDS011;8829;47.932;7.810;2024-01-11T00:04:06;28.97;;;17.30;;
17422;SDS011;8829;47.932;7.810;2024-01-11T00:06:33;22.33;;;15.77;;
17422;SDS011;8829;47.932;7.810;2024-01-11T00:09:06;24.20;;;16.30;;
17422;SDS011;8829;47.932;7.810;2024-01-11T00:11:33;24.83;;;15.80;;
17422;SDS011;8829;47.932;7.810;2024-01-11T00:14:00;27.37;;;17.03;;
17422;SDS011;8829;47.932;7.810;2024-01-11T00:16:26;29.73;;;17.97;;
17422;SDS011;8829;47.932;7.810;2024-01-11T00:18:53;25.40;;;16.10;;
17422;SDS011;8829;47.932;7.810;2024-01-11T00:21:21;25.30;;;16.57;;
17422;SDS011;8829;47.932;7.810;2024-01-11T00:23:48;23.20;;;15.63;;
17422;SDS011;8829;47.932;7.810;2024-01-11T00:26:15;27.30;;;16.90;;
17422;SDS011;8829;47.932;7.810;2024-01-11T00:28:42;24.37;;;15.97;;
17422;SDS011;8829;47.932;7.810;2024-01-11T00:31:08;26.30;;;16.23;;
17422;SDS011;8829;47.932;7.810;2024-01-11T00:33:36;24.97;;;15.20;;
17422;SDS011;8829;47.932;7.810;2024-01-11T00:36:03;25.13;;;16.97;;
17422;SDS011;8829;47.932;7.810;2024-01-11T00:38:31;28.23;;;17.07;;
17422;SDS011;8829;47.932;7.810;2024-01-11T00:40:58;25.83;;;15.97;;
17422;SDS011;8829;47.932;7.810;2024-01-11T00:43:24;25.77;;;15.93;;
17422;SDS011;8829;47.932;7.810;2024-01-11T00:45:51;29.53;;;17.20;;
17422;SDS011;8829;47.932;7.810;2024-01-11T00:48:18;26.33;;;16.43;;
17422;SDS011;8829;47.932;7.810;2024-01-11T00:50:44;25.37;;;15.43;;
17422;SDS011;8829;47.932;7.810;2024-01-11T00:53:11;24.23;;;16.67;;
17422;SDS011;8829;47.932;7.810;2024-01-11T00:55:40;28.73;;;14.83;;
17422;SDS011;8829;47.932;7.810;2024-01-11T00:58:08;23.87;;;15.47;;
17422;SDS011;8829;47.932;7.810;2024-01-11T01:00:34;24.70;;;16.03;;
17422;SDS011;8829;47.932;7.810;2024-01-11T01:03:01;27.33;;;16.87;;
17422;SDS011;8829;47.932;7.810;2024-01-11T01:05:28;22.77;;;15.30;;
17422;SDS011;8829;47.932;7.810;2024-01-11T01:07:55;26.43;;;15.97;;
17422;SDS011;8829;47.932;7.810;2024-01-11T01:10:21;28.80;;;17.27;;
17422;SDS011;8829;47.932;7.810;2024-01-11T01:12:50;27.30;;;16.83;;
17422;SDS011;8829;47.932;7.810;2024-01-11T01:15:16;26.23;;;16.70;;
17422;SDS011;8829;47.932;7.810;2024-01-11T01:17:43;27.57;;;16.70;;
17422;SDS011;8829;47.932;7.810;2024-01-11T01:20:10;28.00;;;18.03;;
17422;SDS011;8829;47.932;7.810;2024-01-11T01:22:37;23.40;;;15.87;;
17422;SDS011;8829;47.932;7.810;2024-01-11T01:25:04;25.93;;;16.53;;
17422;SDS011;8829;47.932;7.810;2024-01-11T01:27:31;26.93;;;16.63;;
17422;SDS011;8829;47.932;7.810;2024-01-11T01:29:59;25.67;;;17.13;;
17422;SDS011;8829;47.932;7.810;2024-01-11T01:32:25;26.83;;;17.23;;
17422;SDS011;8829;47.932;7.810;2024-01-11T01:34:52;24.27;;;16.10;;
17422;SDS011;8829;47.932;7.810;2024-01-11T01:37:19;29.13;;;18.77;;
17422;SDS011;8829;47.932;7.810;2024-01-11T01:39:46;27.07;;;17.57;;
17422;SDS011;8829;47.932;7.810;2024-01-11T01:42:12;25.93;;;16.43;;
17422;SDS011;8829;47.932;7.810;2024-01-11T01:44:39;28.30;;;17.23;;
17422;SDS011;8829;47.932;7.810;2024-01-11T01:47:08;26.33;;;17.03;;
17422;SDS011;8829;47.932;7.810;2024-01-11T01:49:36;30.03;;;16.97;;
17422;SDS011;8829;47.932;7.810;2024-01-11T01:52:03;26.63;;;16.10;;
17422;SDS011;8829;47.932;7.810;2024-01-11T01:54:31;26.10;;;16.03;;
17422;SDS011;8829;47.932;7.810;2024-01-11T01:56:58;24.10;;;15.30;;
17422;SDS011;8829;47.932;7.810;2024-01-11T01:59:26;25.57;;;16.33;;
17422;SDS011;8829;47.932;7.810;2024-01-11T02:01:55;23.27;;;14.97;;
17422;SDS011;8829;47.932;7.810;2024-01-11T02:04:23;20.93;;;15.43;;
17422;SDS011;8829;47.932;7.810;2024-01-11T02:06:50;26.23;;;17.27;;
17422;SDS011;8829;47.932;7.810;2024-01-11T02:09:19;22.23;;;15.10;;
17422;SDS011;8829;47.932;7.810;2024-01-11T02:11:46;26.50;;;16.20;;
17422;SDS011;8829;47.932;7.810;2024-01-11T02:14:14;24.23;;;15.57;;
17422;SDS011;8829;47.932;7.810;2024-01-11T02:16:40;27.07;;;15.30;;
17422;SDS011;8829;47.932;7.810;2024-01-11T02:19:07;28.30;;;17.03;;
17422;SDS011;8829;47.932;7.810;2024-01-11T02:21:39;25.63;;;16.10;;
17422;SDS011;8829;47.932;7.810;2024-01-11T02:24:09;26.30;;;15.93;;
17422;SDS011;8829;47.932;7.810;2024-01-11T02:26:36;27.30;;;16.63;;
17422;SDS011;8829;47.932;7.810;2024-01-11T02:29:04;24.63;;;15.90;;
17422;SDS011;8829;47.932;7.810;2024-01-11T02:31:30;26.10;;;16.43;;
17422;SDS011;8829;47.932;7.810;2024-01-11T02:33:57;23.87;;;15.87;;
17422;SDS011;8829;47.932;7.810;2024-01-11T02:36:24;26.57;;;16.20;;
17422;SDS011;8829;47.932;7.810;2024-01-11T02:38:51;24.47;;;16.53;;
17422;SDS011;8829;47.932;7.810;2024-01-11T02:41:21;24.37;;;15.80;;
17422;SDS011;8829;47.932;7.810;2024-01-11T02:43:49;20.77;;;14.77;;
17422;SDS011;8829;47.932;7.810;2024-01-11T02:46:16;22.80;;;15.50;;
17422;SDS011;8829;47.932;7.810;2024-01-11T02:48:43;23.53;;;15.30;;
17422;SDS011;8829;47.932;7.810;2024-01-11T02:51:10;24.20;;;15.67;;
17422;SDS011;8829;47.932;7.810;2024-01-11T02:53:36;22.70;;;15.47;;
17422;SDS011;8829;47.932;7.810;2024-01-11T02:56:03;24.00;;;14.50;;
17422;SDS011;8829;47.932;7.810;2024-01-11T02:58:31;25.67;;;15.83;;
17422;SDS011;8829;47.932;7.810;2024-01-11T03:00:58;23.03;;;15.17;;
17422;SDS011;8829;47.932;7.810;2024-01-11T03:03:25;26.90;;;16.47;;
17422;SDS011;8829;47.932;7.810;2024-01-11T03:05:51;24.37;;;15.90;;
17422;SDS011;8829;47.932;7.810;2024-01-11T03:08:18;22.73;;;14.93;;
17422;SDS011;8829;47.932;7.810;2024-01-11T03:10:45;22.60;;;15.90;;
17422;SDS011;8829;47.932;7.810;2024-01-11T03:13:11;25.53;;;15.60;;
17422;SDS011;8829;47.932;7.810;2024-01-11T03:15:40;25.40;;;15.17;;
17422;SDS011;8829;47.932;7.810;2024-01-11T03:18:07;26.23;;;15.60;;
17422;SDS011;8829;47.932;7.810;2024-01-11T03:20:33;24.43;;;15.13;;
17422;SDS011;8829;47.932;7.810;2024-01-11T03:23:00;29.27;;;16.73;;
17422;SDS011;8829;47.932;7.810;2024-01-11T03:25:27;28.17;;;17.30;;
17422;SDS011;8829;47.932;7.810;2024-01-11T03:27:55;23.47;;;15.47;;
17422;SDS011;8829;47.932;7.810;2024-01-11T03:30:21;26.83;;;17.33;;
17422;SDS011;8829;47.932;7.810;2024-01-11T03:32:49;23.57;;;15.87;;
17422;SDS011;8829;47.932;7.810;2024-01-11T03:35:17;28.20;;;17.30;;
17422;SDS011;8829;47.932;7.810;2024-01-11T03:37:44;25.17;;;15.50;;
17422;SDS011;8829;47.932;7.810;2024-01-11T03:40:11;29.03;;;15.57;;
17422;SDS011;8829;47.932;7.810;2024-01-11T03:42:39;24.60;;;16.60;;
17422;SDS011;8829;47.932;7.810;2024-01-11T03:45:07;26.50;;;17.70;;
17422;SDS011;8829;47.932;7.810;2024-01-11T03:47:35;26.07;;;16.47;;
17422;SDS011;8829;47.932;7.810;2024-01-11T03:50:03;27.30;;;17.40;;
17422;SDS011;8829;47.932;7.810;2024-01-11T03:52:30;24.80;;;16.23;;
17422;SDS011;8829;47.932;7.810;2024-01-11T03:54:57;26.50;;;16.60;;
17422;SDS011;8829;47.932;7.810;2024-01-11T03:57:23;27.43;;;15.60;;
17422;SDS011;8829;47.932;7.810;2024-01-11T03:59:50;27.87;;;16.83;;
17422;SDS011;8829;47.932;7.810;2024-01-11T04:02:17;26.10;;;16.17;;
17422;SDS011;8829;47.932;7.810;2024-01-11T04:04:43;29.90;;;17.47;;
17422;SDS011;8829;47.932;7.810;2024-01-11T04:07:11;27.17;;;17.17;;
17422;SDS011;8829;47.932;7.810;2024-01-11T04:09:38;26.80;;;16.03;;
17422;SDS011;8829;47.932;7.810;2024-01-11T04:12:05;27.37;;;17.70;;
17422;SDS011;8829;47.932;7.810;2024-01-11T04:14:32;28.77;;;17.07;;
17422;SDS011;8829;47.932;7.810;2024-01-11T04:16:59;22.47;;;15.63;;
17422;SDS011;8829;47.932;7.810;2024-01-11T04:19:26;32.17;;;16.07;;
17422;SDS011;8829;47.932;7.810;2024-01-11T04:21:52;30.83;;;19.03;;
17422;SDS011;8829;47.932;7.810;2024-01-11T04:24:23;25.07;;;15.90;;
17422;SDS011;8829;47.932;7.810;2024-01-11T04:26:50;26.83;;;16.50;;
17422;SDS011;8829;47.932;7.810;2024-01-11T04:29:16;25.83;;;16.63;;
17422;SDS011;8829;47.932;7.810;2024-01-11T04:31:43;24.57;;;15.80;;
17422;SDS011;8829;47.932;7.810;2024-01-11T04:34:10;24.70;;;16.70;;
17422;SDS011;8829;47.932;7.810;2024-01-11T04:36:37;24.70;;;16.33;;
17422;SDS011;8829;47.932;7.810;2024-01-11T04:39:04;25.40;;;16.63;;
17422;SDS011;8829;47.932;7.810;2024-01-11T04:41:35;27.93;;;16.83;;
17422;SDS011;8829;47.932;7.810;2024-01-11T04:44:02;25.57;;;15.60;;
17422;SDS011;8829;47.932;7.810;2024-01-11T04:46:28;23.77;;;16.30;;
17422;SDS011;8829;47.932;7.810;2024-01-11T04:48:55;27.00;;;17.03;;
17422;SDS011;8829;47.932;7.810;2024-01-11T04:51:22;25.27;;;14.97;;
17422;SDS011;8829;47.932;7.810;2024-01-11T04:53:48;24.87;;;15.90;;
17422;SDS011;8829;47.932;7.810;2024-01-11T04:56:15;25.63;;;16.43;;
17422;SDS011;8829;47.932;7.810;2024-01-11T04:58:44;25.07;;;15.10;;
17422;SDS011;8829;47.932;7.810;2024-01-11T05:01:11;27.10;;;16.17;;
17422;SDS011;8829;47.932;7.810;2024-01-11T05:03:39;24.30;;;16.07;;
17422;SDS011;8829;47.932;7.810;2024-01-11T05:06:05;22.33;;;15.87;;
17422;SDS011;8829;47.932;7.810;2024-01-11T05:08:32;25.90;;;15.67;;
17422;SDS011;8829;47.932;7.810;2024-01-11T05:10:59;21.83;;;15.27;;
17422;SDS011;8829;47.932;7.810;2024-01-11T05:13:26;24.20;;;15.80;;
17422;SDS011;8829;47.932;7.810;2024-01-11T05:15:54;27.23;;;17.00;;
17422;SDS011;8829;47.932;7.810;2024-01-11T05:18:20;22.70;;;15.43;;
17422;SDS011;8829;47.932;7.810;2024-01-11T05:20:47;26.03;;;16.37;;
17422;SDS011;8829;47.932;7.810;2024-01-11T05:23:14;24.67;;;15.80;;
17422;SDS011;8829;47.932;7.810;2024-01-11T05:25:40;25.23;;;16.80;;
17422;SDS011;8829;47.932;7.810;2024-01-11T05:28:07;24.33;;;15.37;;
17422;SDS011;8829;47.932;7.810;2024-01-11T05:30:34;23.73;;;16.17;;
17422;SDS011;8829;47.932;7.810;2024-01-11T05:33:02;28.00;;;16.47;;
17422;SDS011;8829;47.932;7.810;2024-01-11T05:35:29;25.60;;;16.03;;
17422;SDS011;8829;47.932;7.810;2024-01-11T05:37:56;24.30;;;16.07;;
17422;SDS011;8829;47.932;7.810;2024-01-11T05:40:22;26.53;;;16.90;;
17422;SDS011;8829;47.932;7.810;2024-01-11T05:42:49;26.37;;;16.43;;
17422;SDS011;8829;47.932;7.810;2024-01-11T05:45:16;29.23;;;17.27;;
17422;SDS011;8829;47.932;7.810;2024-01-11T05:47:43;28.23;;;17.40;;
17422;SDS011;8829;47.932;7.810;2024-01-11T05:50:11;26.00;;;17.23;;
17422;SDS011;8829;47.932;7.810;2024-01-11T05:52:38;25.10;;;15.70;;
17422;SDS011;8829;47.932;7.810;2024-01-11T05:55:05;24.43;;;16.60;;
17422;SDS011;8829;47.932;7.810;2024-01-11T05:57:32;24.77;;;16.17;;
17422;SDS011;8829;47.932;7.810;2024-01-11T05:59:58;25.87;;;17.07;;
17422;SDS011;8829;47.932;7.810;2024-01-11T06:02:25;24.97;;;16.20;;
17422;SDS011;8829;47.932;7.810;2024-01-11T06:04:52;26.70;;;18.53;;
17422;SDS011;8829;47.932;7.810;2024-01-11T06:07:20;26.90;;;17.20;;
17422;SDS011;8829;47.932;7.810;2024-01-11T06:09:46;29.53;;;17.73;;
17422;SDS011;8829;47.932;7.810;2024-01-11T06:12:13;29.57;;;20.00;;
17422;SDS011;8829;47.932;7.810;2024-01-11T06:14:40;30.37;;;17.93;;
17422;SDS011;8829;47.932;7.810;2024-01-11T06:17:07;29.70;;;18.33;;
17422;SDS011;8829;47.932;7.810;2024-01-11T06:19:35;31.77;;;17.57;;
17422;SDS011;8829;47.932;7.810;2024-01-11T06:22:02;27.10;;;16.67;;
17422;SDS011;8829;47.932;7.810;2024-01-11T06:24:31;28.10;;;18.50;;
17422;SDS011;8829;47.932;7.810;2024-01-11T06:26:58;32.27;;;18.80;;
17422;SDS011;8829;47.932;7.810;2024-01-11T06:29:24;33.97;;;19.87;;
17422;SDS011;8829;47.932;7.810;2024-01-11T06:31:51;31.77;;;19.23;;
17422;SDS011;8829;47.932;7.810;2024-01-11T06:34:18;34.63;;;19.70;;
17422;SDS011;8829;47.932;7.810;2024-01-11T06:36:45;32.00;;;20.57;;
17422;SDS011;8829;47.932;7.810;2024-01-11T06:39:11;28.97;;;17.77;;
17422;SDS011;8829;47.932;7.810;2024-01-11T06:41:40;25.27;;;17.00;;
17422;SDS011;8829;47.932;7.810;2024-01-11T06:44:06;27.50;;;16.73;;
17422;SDS011;8829;47.932;7.810;2024-01-11T06:46:33;33.77;;;18.57;;
17422;SDS011;8829;47.932;7.810;2024-01-11T06:49:01;31.37;;;18.63;;
17422;SDS011;8829;47.932;7.810;2024-01-11T06:51:28;29.30;;;17.67;;
17422;SDS011;8829;47.932;7.810;2024-01-11T06:53:55;28.57;;;16.37;;
17422;SDS011;8829;47.932;7.810;2024-01-11T06:56:22;27.90;;;17.20;;
17422;SDS011;8829;47.932;7.810;2024-01-11T06:58:50;26.33;;;16.40;;
17422;SDS011;8829;47.932;7.810;2024-01-11T07:01:17;25.50;;;16.43;;
17422;SDS011;8829;47.932;7.810;2024-01-11T07:03:44;26.03;;;16.53;;
17422;SDS011;8829;47.932;7.810;2024-01-11T07:06:11;29.63;;;16.57;;
17422;SDS011;8829;47.932;7.810;2024-01-11T07:08:37;30.27;;;17.80;;
17422;SDS011;8829;47.932;7.810;2024-01-11T07:11:04;29.17;;;16.47;;
17422;SDS011;8829;47.932;7.810;2024-01-11T07:13:32;28.03;;;16.73;;
17422;SDS011;8829;47.932;7.810;2024-01-11T07:16:01;27.70;;;18.00;;
17422;SDS011;8829;47.932;7.810;2024-01-11T07:18:28;32.47;;;19.43;;
17422;SDS011;8829;47.932;7.810;2024-01-11T07:20:56;65.63;;;32.53;;
17422;SDS011;8829;47.932;7.810;2024-01-11T07:23:23;29.00;;;18.50;;
17422;SDS011;8829;47.932;7.810;2024-01-11T07:25:49;26.60;;;15.53;;
17422;SDS011;8829;47.932;7.810;2024-01-11T07:28:16;30.07;;;17.27;;
17422;SDS011;8829;47.932;7.810;2024-01-11T07:30:44;28.40;;;17.90;;
17422;SDS011;8829;47.932;7.810;2024-01-11T07:33:12;32.23;;;17.47;;
17422;SDS011;8829;47.932;7.810;2024-01-11T07:35:39;28.07;;;16.70;;
17422;SDS011;8829;47.932;7.810;2024-01-11T07:38:06;25.07;;;15.20;;
17422;SDS011;8829;47.932;7.810;2024-01-11T07:40:32;22.87;;;14.80;;
17422;SDS011;8829;47.932;7.810;2024-01-11T07:42:59;22.33;;;14.40;;
17422;SDS011;8829;47.932;7.810;2024-01-11T07:45:26;21.27;;;14.23;;
17422;SDS011;8829;47.932;7.810;2024-01-11T07:47:52;21.50;;;14.47;;
17422;SDS011;8829;47.932;7.810;2024-01-11T07:50:20;26.63;;;15.23;;
17422;SDS011;8829;47.932;7.810;2024-01-11T07:52:47;23.40;;;14.97;;
17422;SDS011;8829;47.932;7.810;2024-01-11T07:55:14;22.70;;;14.27;;
17422;SDS011;8829;47.932;7.810;2024-01-11T07:57:41;21.07;;;13.47;;
17422;SDS011;8829;47.932;7.810;2024-01-11T08:00:08;19.43;;;13.63;;
17422;SDS011;8829;47.932;7.810;2024-01-11T08:02:36;23.40;;;14.40;;
17422;SDS011;8829;47.932;7.810;2024-01-11T08:05:03;24.50;;;14.13;;
17422;SDS011;8829;47.932;7.810;2024-01-11T08:07:31;21.70;;;13.97;;
17422;SDS011;8829;47.932;7.810;2024-01-11T08:09:58;24.30;;;14.47;;
17422;SDS011;8829;47.932;7.810;2024-01-11T08:12:24;23.57;;;14.30;;
17422;SDS011;8829;47.932;7.810;2024-01-11T08:14:51;26.00;;;15.50;;
17422;SDS011;8829;47.932;7.810;2024-01-11T08:17:18;24.40;;;14.57;;
17422;SDS011;8829;47.932;7.810;2024-01-11T08:19:45;29.00;;;15.43;;
17422;SDS011;8829;47.932;7.810;2024-01-11T08:22:12;21.47;;;13.93;;
17422;SDS011;8829;47.932;7.810;2024-01-11T08:24:40;26.23;;;15.67;;
17422;SDS011;8829;47.932;7.810;2024-01-11T08:27:06;26.20;;;15.00;;
17422;SDS011;8829;47.932;7.810;2024-01-11T08:29:33;27.47;;;17.00;;
17422;SDS011;8829;47.932;7.810;2024-01-11T08:32:00;30.53;;;18.37;;
17422;SDS011;8829;47.932;7.810;2024-01-11T08:34:29;26.50;;;17.60;;
17422;SDS011;8829;47.932;7.810;2024-01-11T08:36:55;26.87;;;16.77;;
17422;SDS011;8829;47.932;7.810;2024-01-11T08:39:23;33.90;;;17.57;;
17422;SDS011;8829;47.932;7.810;2024-01-11T08:41:51;30.00;;;16.97;;
17422;SDS011;8829;47.932;7.810;2024-01-11T08:44:17;29.50;;;16.23;;
17422;SDS011;8829;47.932;7.810;2024-01-11T08:46:44;28.83;;;16.10;;
17422;SDS011;8829;47.932;7.810;2024-01-11T08:49:11;30.27;;;16.83;;
17422;SDS011;8829;47.932;7.810;2024-01-11T08:51:38;31.30;;;16.80;;
17422;SDS011;8829;47.932;7.810;2024-01-11T08:54:04;33.27;;;18.23;;
17422;SDS011;8829;47.932;7.810;2024-01-11T08:56:33;29.63;;;17.47;;
17422;SDS011;8829;47.932;7.810;2024-01-11T08:59:02;32.10;;;18.03;;
17422;SDS011;8829;47.932;7.810;2024-01-11T09:01:28;30.83;;;15.73;;
17422;SDS011;8829;47.932;7.810;2024-01-11T09:03:55;32.87;;;18.43;;
17422;SDS011;8829;47.932;7.810;2024-01-11T09:06:23;25.30;;;15.90;;
17422;SDS011;8829;47.932;7.810;2024-01-11T09:08:49;31.80;;;18.27;;
17422;SDS011;8829;47.932;7.810;2024-01-11T09:11:17;32.83;;;17.70;;
17422;SDS011;8829;47.932;7.810;2024-01-11T09:13:44;28.27;;;15.83;;
17422;SDS011;8829;47.932;7.810;2024-01-11T09:16:15;28.87;;;17.70;;
17422;SDS011;8829;47.932;7.810;2024-01-11T09:18:42;25.70;;;16.47;;
17422;SDS011;8829;47.932;7.810;2024-01-11T09:21:09;28.97;;;17.23;;
17422;SDS011;8829;47.932;7.810;2024-01-11T09:23:37;27.30;;;17.10;;
17422;SDS011;8829;47.932;7.810;2024-01-11T09:26:04;28.27;;;17.03;;
17422;SDS011;8829;47.932;7.810;2024-01-11T09:28:31;30.33;;;17.57;;
17422;SDS011;8829;47.932;7.810;2024-01-11T09:30:57;32.20;;;17.13;;
17422;SDS011;8829;47.932;7.810;2024-01-11T09:33:26;28.43;;;16.17;;
17422;SDS011;8829;47.932;7.810;2024-01-11T09:35:53;28.97;;;16.10;;
17422;SDS011;8829;47.932;7.810;2024-01-11T09:38:20;27.47;;;16.60;;
17422;SDS011;8829;47.932;7.810;2024-01-11T09:40:47;25.50;;;15.83;;
17422;SDS011;8829;47.932;7.810;2024-01-11T09:43:19;27.13;;;16.97;;
17422;SDS011;8829;47.932;7.810;2024-01-11T09:45:46;29.87;;;18.07;;
17422;SDS011;8829;47.932;7.810;2024-01-11T09:48:16;29.63;;;17.97;;
17422;SDS011;8829;47.932;7.810;2024-01-11T09:50:46;27.80;;;16.57;;
17422;SDS011;8829;47.932;7.810;2024-01-11T09:53:14;27.67;;;17.07;;
17422;SDS011;8829;47.932;7.810;2024-01-11T09:55:48;26.90;;;16.50;;
17422;SDS011;8829;47.932;7.810;2024-01-11T09:58:16;27.00;;;16.87;;
17422;SDS011;8829;47.932;7.810;2024-01-11T10:00:42;30.47;;;17.30;;
17422;SDS011;8829;47.932;7.810;2024-01-11T10:03:09;30.53;;;18.50;;
17422;SDS011;8829;47.932;7.810;2024-01-11T10:05:36;26.20;;;16.27;;
17422;SDS011;8829;47.932;7.810;2024-01-11T10:08:04;25.43;;;16.40;;
17422;SDS011;8829;47.932;7.810;2024-01-11T10:10:32;27.50;;;17.40;;
17422;SDS011;8829;47.932;7.810;2024-01-11T10:12:58;29.17;;;16.93;;
17422;SDS011;8829;47.932;7.810;2024-01-11T10:15:26;26.20;;;16.20;;
17422;SDS011;8829;47.932;7.810;2024-01-11T10:17:52;27.20;;;17.07;;
17422;SDS011;8829;47.932;7.810;2024-01-11T10:20:19;27.07;;;16.87;;
17422;SDS011;8829;47.932;7.810;2024-01-11T10:22:48;30.83;;;17.80;;
17422;SDS011;8829;47.932;7.810;2024-01-11T10:25:17;30.17;;;20.33;;
17422;SDS011;8829;47.932;7.810;2024-01-11T10:27:44;29.23;;;17.23;;
17422;SDS011;8829;47.932;7.810;2024-01-11T10:30:11;28.80;;;16.87;;
17422;SDS011;8829;47.932;7.810;2024-01-11T10:32:41;28.63;;;17.13;;
17422;SDS011;8829;47.932;7.810;2024-01-11T10:35:08;30.03;;;17.67;;
17422;SDS011;8829;47.932;7.810;2024-01-11T10:37:35;47.07;;;26.07;;
17422;SDS011;8829;47.932;7.810;2024-01-11T10:40:04;30.80;;;18.47;;
17422;SDS011;8829;47.932;7.810;2024-01-11T10:42:37;29.27;;;21.02;;
17422;SDS011;8829;47.932;7.810;2024-01-11T10:45:09;25.77;;;16.13;;
17422;SDS011;8829;47.932;7.810;2024-01-11T10:47:40;24.17;;;15.47;;
17422;SDS011;8829;47.932;7.810;2024-01-11T10:50:13;23.43;;;14.90;;
17422;SDS011;8829;47.932;7.810;2024-01-11T10:52:42;24.20;;;14.93;;
17422;SDS011;8829;47.932;7.810;2024-01-11T10:55:18;24.67;;;16.00;;
17422;SDS011;8829;47.932;7.810;2024-01-11T10:57:47;25.37;;;15.77;;
17422;SDS011;8829;47.932;7.810;2024-01-11T11:00:15;25.27;;;16.20;;
17422;SDS011;8829;47.932;7.810;2024-01-11T11:02:43;25.50;;;16.30;;
17422;SDS011;8829;47.932;7.810;2024-01-11T11:05:12;25.67;;;17.07;;
17422;SDS011;8829;47.932;7.810;2024-01-11T11:07:40;25.90;;;17.47;;
17422;SDS011;8829;47.932;7.810;2024-01-11T11:10:08;29.67;;;18.67;;
17422;SDS011;8829;47.932;7.810;2024-01-11T11:12:36;27.43;;;17.37;;
17422;SDS011;8829;47.932;7.810;2024-01-11T11:15:07;29.93;;;17.47;;
17422;SDS011;8829;47.932;7.810;2024-01-11T11:17:37;30.88;;;21.45;;
17422;SDS011;8829;47.932;7.810;2024-01-11T11:20:05;26.57;;;16.90;;
17422;SDS011;8829;47.932;7.810;2024-01-11T11:22:33;24.83;;;17.37;;
17422;SDS011;8829;47.932;7.810;2024-01-11T11:25:04;29.33;;;17.77;;
17422;SDS011;8829;47.932;7.810;2024-01-11T11:27:34;30.27;;;17.70;;
17422;SDS011;8829;47.932;7.810;2024-01-11T11:30:01;34.63;;;19.23;;
17422;SDS011;8829;47.932;7.810;2024-01-11T11:35:12;31.00;;;19.00;;
17422;SDS011;8829;47.932;7.810;2024-01-11T11:37:39;33.57;;;20.47;;
17422;SDS011;8829;47.932;7.810;2024-01-11T11:40:07;31.73;;;19.07;;
17422;SDS011;8829;47.932;7.810;2024-01-11T11:42:36;28.47;;;18.30;;
17422;SDS011;8829;47.932;7.810;2024-01-11T11:45:05;30.67;;;17.90;;
17422;SDS011;8829;47.932;7.810;2024-01-11T11:47:36;30.10;;;18.90;;
17422;SDS011;8829;47.932;7.810;2024-01-11T11:50:05;29.97;;;18.80;;
17422;SDS011;8829;47.932;7.810;2024-01-11T11:52:34;29.80;;;19.37;;
17422;SDS011;8829;47.932;7.810;2024-01-11T11:55:02;35.20;;;19.93;;
17422;SDS011;8829;47.932;7.810;2024-01-11T11:57:29;27.60;;;18.17;;
17422;SDS011;8829;47.932;7.810;2024-01-11T11:59:57;29.83;;;18.07;;
17422;SDS011;8829;47.932;7.810;2024-01-11T12:02:25;30.23;;;19.70;;
17422;SDS011;8829;47.932;7.810;2024-01-11T12:04:52;28.27;;;18.07;;
17422;SDS011;8829;47.932;7.810;2024-01-11T12:07:21;29.90;;;19.63;;
17422;SDS011;8829;47.932;7.810;2024-01-11T12:09:48;30.00;;;19.47;;
17422;SDS011;8829;47.932;7.810;2024-01-11T12:12:15;28.33;;;19.27;;
17422;SDS011;8829;47.932;7.810;2024-01-11T12:14:42;34.63;;;23.90;;
17422;SDS011;8829;47.932;7.810;2024-01-11T12:17:11;31.73;;;20.93;;
17422;SDS011;8829;47.932;7.810;2024-01-11T12:19:38;30.77;;;19.63;;
17422;SDS011;8829;47.932;7.810;2024-01-11T12:22:04;33.93;;;18.93;;
17422;SDS011;8829;47.932;7.810;2024-01-11T12:24:33;27.17;;;17.10;;
17422;SDS011;8829;47.932;7.810;2024-01-11T12:27:00;22.37;;;15.00;;
17422;SDS011;8829;47.932;7.810;2024-01-11T12:29:28;27.13;;;15.03;;
17422;SDS011;8829;47.932;7.810;2024-01-11T12:31:56;22.73;;;15.77;;
17422;SDS011;8829;47.932;7.810;2024-01-11T12:34:23;25.50;;;16.70;;
17422;SDS011;8829;47.932;7.810;2024-01-11T12:36:51;22.03;;;14.83;;
17422;SDS011;8829;47.932;7.810;2024-01-11T12:39:18;21.33;;;14.27;;
17422;SDS011;8829;47.932;7.810;2024-01-11T12:41:48;23.03;;;13.87;;
17422;SDS011;8829;47.932;7.810;2024-01-11T12:44:16;20.60;;;14.30;;
17422;SDS011;8829;47.932;7.810;2024-01-11T12:46:44;23.33;;;14.23;;
17422;SDS011;8829;47.932;7.810;2024-01-11T12:49:11;25.17;;;15.37;;
17422;SDS011;8829;47.932;7.810;2024-01-11T12:51:38;26.07;;;16.17;;
17422;SDS011;8829;47.932;7.810;2024-01-11T12:54:08;23.20;;;15.33;;
17422;SDS011;8829;47.932;7.810;2024-01-11T12:56:40;26.07;;;15.10;;
17422;SDS011;8829;47.932;7.810;2024-01-11T12:59:08;22.70;;;15.17;;
17422;SDS011;8829;47.932;7.810;2024-01-11T13:01:36;24.33;;;15.93;;
17422;SDS011;8829;47.932;7.810;2024-01-11T13:04:03;35.07;;;20.47;;
17422;SDS011;8829;47.932;7.810;2024-01-11T13:06:30;33.00;;;20.20;;
17422;SDS011;8829;47.932;7.810;2024-01-11T13:08:57;28.87;;;18.57;;
17422;SDS011;8829;47.932;7.810;2024-01-11T13:11:24;35.13;;;21.80;;
17422;SDS011;8829;47.932;7.810;2024-01-11T13:13:51;34.77;;;22.67;;
17422;SDS011;8829;47.932;7.810;2024-01-11T13:16:19;35.70;;;22.67;;
17422;SDS011;8829;47.932;7.810;2024-01-11T13:18:47;40.47;;;25.77;;
17422;SDS011;8829;47.932;7.810;2024-01-11T13:21:13;33.88;;;22.70;;
17422;SDS011;8829;47.932;7.810;2024-01-11T13:23:40;39.10;;;22.40;;
17422;SDS011;8829;47.932;7.810;2024-01-11T13:26:07;34.97;;;21.77;;
17422;SDS011;8829;47.932;7.810;2024-01-11T13:28:34;34.10;;;23.10;;
17422;SDS011;8829;47.932;7.810;2024-01-11T13:31:01;31.43;;;20.57;;
17422;SDS011;8829;47.932;7.810;2024-01-11T13:33:29;33.70;;;21.73;;
17422;SDS011;8829;47.932;7.810;2024-01-11T13:35:56;36.20;;;22.97;;
17422;SDS011;8829;47.932;7.810;2024-01-11T13:38:23;39.60;;;24.37;;
17422;SDS011;8829;47.932;7.810;2024-01-11T13:40:49;32.70;;;21.77;;
17422;SDS011;8829;47.932;7.810;2024-01-11T13:43:16;34.07;;;21.50;;
17422;SDS011;8829;47.932;7.810;2024-01-11T13:45:43;38.47;;;23.50;;
17422;SDS011;8829;47.932;7.810;2024-01-11T13:48:10;43.67;;;25.07;;
17422;SDS011;8829;47.932;7.810;2024-01-11T13:50:38;32.80;;;20.53;;
17422;SDS011;8829;47.932;7.810;2024-01-11T13:53:05;32.97;;;19.83;;
17422;SDS011;8829;47.932;7.810;2024-01-11T13:55:31;36.57;;;20.67;;
17422;SDS011;8829;47.932;7.810;2024-01-11T13:58:03;32.53;;;21.23;;
17422;SDS011;8829;47.932;7.810;2024-01-11T14:00:29;30.10;;;20.03;;
17422;SDS011;8829;47.932;7.810;2024-01-11T14:02:56;32.00;;;20.03;;
17422;SDS011;8829;47.932;7.810;2024-01-11T14:05:23;34.53;;;20.27;;
17422;SDS011;8829;47.932;7.810;2024-01-11T14:07:51;32.43;;;21.30;;
17422;SDS011;8829;47.932;7.810;2024-01-11T14:10:23;35.60;;;21.30;;
17422;SDS011;8829;47.932;7.810;2024-01-11T14:12:50;38.47;;;22.27;;
17422;SDS011;8829;47.932;7.810;2024-01-11T14:15:16;41.50;;;28.53;;
17422;SDS011;8829;47.932;7.810;2024-01-11T14:17:43;39.27;;;24.30;;
17422;SDS011;8829;47.932;7.810;2024-01-11T14:20:10;35.10;;;22.00;;
17422;SDS011;8829;47.932;7.810;2024-01-11T14:22:39;39.33;;;22.30;;
17422;SDS011;8829;47.932;7.810;2024-01-11T14:25:08;36.97;;;23.13;;
17422;SDS011;8829;47.932;7.810;2024-01-11T14:27:36;36.03;;;22.90;;
17422;SDS011;8829;47.932;7.810;2024-01-11T14:30:04;36.97;;;22.37;;
17422;SDS011;8829;47.932;7.810;2024-01-11T14:32:32;33.77;;;22.17;;
17422;SDS011;8829;47.932;7.810;2024-01-11T14:34:59;40.10;;;23.77;;
17422;SDS011;8829;47.932;7.810;2024-01-11T14:37:29;39.10;;;23.70;;